sensor_id;sensor_type;location;lat;lon;timestamp;pressure;altitude;pressure_sealevel;temperature;humidity
80500;BME280;69823;54.120;-4.710;2023-07-20T00:01:39;100113.71;;;28.82;26.76
80500;BME280;69823;54.120;-4.710;2023-07-20T00:04:04;100116.37;;;28.72;26.82
80500;BME280;69823;54.120;-4.710;2023-07-20T00:06:30;100119.54;;;28.56;26.78
80500;BME280;69823;54.120;-4.710;2023-07-20T00:08:56;100119.47;;;28.72;26.83
80500;BME280;69823;54.120;-4.710;2023-07-20T00:11:25;100118.26;;;28.79;26.77
80500;BME280;69823;54.120;-4.710;2023-07-20T00:13:47;100114.73;;;28.78;26.79
80500;BME280;69823;54.120;-4.710;2023-07-20T00:16:12;100117.08;;;28.81;26.77
80500;BME280;69823;54.120;-4.710;2023-07-20T00:18:38;100120.79;;;28.72;26.85
80500;BME280;69823;54.120;-4.710;2023-07-20T00:21:04;100122.28;;;28.69;26.88
80500;BME280;69823;54.120;-4.710;2023-07-20T00:23:29;100126.76;;;28.44;26.89
80500;BME280;69823;54.120;-4.710;2023-07-20T00:25:55;100128.92;;;28.77;26.79
80500;BME280;69823;54.120;-4.710;2023-07-20T00:28:21;100125.41;;;28.73;26.82
80500;BME280;69823;54.120;-4.710;2023-07-20T00:30:46;100125.63;;;28.77;26.78
80500;BME280;69823;54.120;-4.710;2023-07-20T00:33:12;100127.33;;;28.72;26.82
80500;BME280;69823;54.120;-4.710;2023-07-20T00:35:38;100128.76;;;28.73;26.81
80500;BME280;69823;54.120;-4.710;2023-07-20T00:38:04;100127.14;;;28.84;26.69
80500;BME280;69823;54.120;-4.710;2023-07-20T00:40:35;100129.27;;;28.85;26.67
80500;BME280;69823;54.120;-4.710;2023-07-20T00:42:55;100130.31;;;28.87;26.65
80500;BME280;69823;54.120;-4.710;2023-07-20T00:45:20;100129.86;;;28.57;26.71
80500;BME280;69823;54.120;-4.710;2023-07-20T00:47:46;100128.23;;;28.83;26.68
80500;BME280;69823;54.120;-4.710;2023-07-20T00:50:12;100129.25;;;28.72;26.80
80500;BME280;69823;54.120;-4.710;2023-07-20T00:52:38;100127.55;;;28.64;26.87
80500;BME280;69823;54.120;-4.710;2023-07-20T00:55:03;100126.36;;;28.59;26.95
80500;BME280;69823;54.120;-4.710;2023-07-20T00:57:29;100123.94;;;28.65;26.88
80500;BME280;69823;54.120;-4.710;2023-07-20T00:59:54;100127.61;;;28.60;26.93
80500;BME280;69823;54.120;-4.710;2023-07-20T01:02:20;100125.86;;;28.70;26.82
80500;BME280;69823;54.120;-4.710;2023-07-20T01:04:46;100123.15;;;28.63;26.89
80500;BME280;69823;54.120;-4.710;2023-07-20T01:07:16;100126.79;;;28.63;26.88
80500;BME280;69823;54.120;-4.710;2023-07-20T01:09:41;100127.93;;;28.59;26.91
80500;BME280;69823;54.120;-4.710;2023-07-20T01:12:08;100125.82;;;28.61;26.91
80500;BME280;69823;54.120;-4.710;2023-07-20T01:14:29;100119.21;;;28.53;26.97
80500;BME280;69823;54.120;-4.710;2023-07-20T01:16:54;100117.83;;;28.65;26.87
80500;BME280;69823;54.120;-4.710;2023-07-20T01:19:20;100116.76;;;28.42;26.85
80500;BME280;69823;54.120;-4.710;2023-07-20T01:21:51;100112.77;;;28.90;26.84
80500;BME280;69823;54.120;-4.710;2023-07-20T01:24:24;100112.70;;;28.61;26.88
80500;BME280;69823;54.120;-4.710;2023-07-20T01:26:48;100111.53;;;28.32;26.92
80500;BME280;69823;54.120;-4.710;2023-07-20T01:29:14;100109.14;;;28.52;26.96
80500;BME280;69823;54.120;-4.710;2023-07-20T01:31:30;100108.66;;;28.51;26.97
80500;BME280;69823;54.120;-4.710;2023-07-20T01:33:57;100106.92;;;28.33;26.89
80500;BME280;69823;54.120;-4.710;2023-07-20T01:36:22;100107.94;;;28.70;26.77
80500;BME280;69823;54.120;-4.710;2023-07-20T01:38:46;100103.36;;;28.69;26.75
80500;BME280;69823;54.120;-4.710;2023-07-20T01:41:11;100101.25;;;28.64;26.78
80500;BME280;69823;54.120;-4.710;2023-07-20T01:43:36;100099.74;;;28.63;26.81
80500;BME280;69823;54.120;-4.710;2023-07-20T01:46:02;100101.32;;;28.64;26.79
80500;BME280;69823;54.120;-4.710;2023-07-20T01:48:28;100102.12;;;28.65;26.77
80500;BME280;69823;54.120;-4.710;2023-07-20T01:50:53;100100.89;;;28.66;26.75
80500;BME280;69823;54.120;-4.710;2023-07-20T01:53:20;100104.06;;;28.64;26.77
80500;BME280;69823;54.120;-4.710;2023-07-20T01:55:45;100103.22;;;28.67;26.73
80500;BME280;69823;54.120;-4.710;2023-07-20T01:58:10;100103.82;;;28.57;26.82
80500;BME280;69823;54.120;-4.710;2023-07-20T02:00:37;100103.07;;;28.85;26.80
80500;BME280;69823;54.120;-4.710;2023-07-20T02:03:02;100100.48;;;28.62;26.79
80500;BME280;69823;54.120;-4.710;2023-07-20T02:05:28;100100.67;;;28.48;26.68
80500;BME280;69823;54.120;-4.710;2023-07-20T02:07:53;100096.32;;;28.68;26.70
80500;BME280;69823;54.120;-4.710;2023-07-20T02:10:19;100091.90;;;28.39;26.77
80500;BME280;69823;54.120;-4.710;2023-07-20T02:12:44;100088.08;;;28.58;26.81
80500;BME280;69823;54.120;-4.710;2023-07-20T02:15:10;100088.82;;;28.56;26.81
80500;BME280;69823;54.120;-4.710;2023-07-20T02:17:36;100088.88;;;28.57;26.81
80500;BME280;69823;54.120;-4.710;2023-07-20T02:20:02;100083.78;;;28.64;26.72
80500;BME280;69823;54.120;-4.710;2023-07-20T02:22:27;100089.16;;;28.55;26.82
80500;BME280;69823;54.120;-4.710;2023-07-20T02:24:53;100092.93;;;28.47;26.89
80500;BME280;69823;54.120;-4.710;2023-07-20T02:27:18;100090.87;;;28.51;26.86
80500;BME280;69823;54.120;-4.710;2023-07-20T02:29:44;100091.50;;;28.52;26.84
80500;BME280;69823;54.120;-4.710;2023-07-20T02:32:10;100086.15;;;28.54;26.81
80500;BME280;69823;54.120;-4.710;2023-07-20T02:34:35;100083.16;;;28.57;26.78
80500;BME280;69823;54.120;-4.710;2023-07-20T02:37:01;100084.02;;;28.77;26.83
80500;BME280;69823;54.120;-4.710;2023-07-20T02:39:27;100079.86;;;28.45;26.87
80500;BME280;69823;54.120;-4.710;2023-07-20T02:41:52;100078.46;;;28.50;26.83
80500;BME280;69823;54.120;-4.710;2023-07-20T02:44:18;100075.78;;;28.47;26.85
80500;BME280;69823;54.120;-4.710;2023-07-20T02:46:43;100074.59;;;28.50;26.83
80500;BME280;69823;54.120;-4.710;2023-07-20T02:49:09;100072.73;;;28.55;26.78
80500;BME280;69823;54.120;-4.710;2023-07-20T02:51:35;100073.94;;;28.43;26.63
80500;BME280;69823;54.120;-4.710;2023-07-20T02:54:00;100073.72;;;28.62;26.67
80500;BME280;69823;54.120;-4.710;2023-07-20T02:56:26;100078.87;;;28.57;26.73
80500;BME280;69823;54.120;-4.710;2023-07-20T02:58:52;100077.83;;;28.42;26.88
80500;BME280;69823;54.120;-4.710;2023-07-20T03:01:18;100079.29;;;28.46;26.84
80500;BME280;69823;54.120;-4.710;2023-07-20T03:03:43;100077.16;;;28.45;26.86
80500;BME280;69823;54.120;-4.710;2023-07-20T03:06:09;100074.87;;;28.49;26.80
80500;BME280;69823;54.120;-4.710;2023-07-20T03:08:35;100071.43;;;28.49;26.80
80500;BME280;69823;54.120;-4.710;2023-07-20T03:11:00;100072.30;;;28.48;26.82
80500;BME280;69823;54.120;-4.710;2023-07-20T03:13:26;100068.50;;;28.45;26.85
80500;BME280;69823;54.120;-4.710;2023-07-20T03:15:52;100068.94;;;28.49;26.79
80500;BME280;69823;54.120;-4.710;2023-07-20T03:18:17;100073.56;;;28.28;26.77
80500;BME280;69823;54.120;-4.710;2023-07-20T03:20:43;100078.11;;;28.48;26.78
80500;BME280;69823;54.120;-4.710;2023-07-20T03:23:08;100079.51;;;28.45;26.82
80500;BME280;69823;54.120;-4.710;2023-07-20T03:25:34;100079.52;;;28.20;26.84
80500;BME280;69823;54.120;-4.710;2023-07-20T03:27:59;100080.42;;;28.52;26.77
80500;BME280;69823;54.120;-4.710;2023-07-20T03:30:25;100082.62;;;28.50;26.77
80500;BME280;69823;54.120;-4.710;2023-07-20T03:32:51;100082.49;;;28.46;26.80
80500;BME280;69823;54.120;-4.710;2023-07-20T03:35:17;100078.20;;;28.49;26.77
80500;BME280;69823;54.120;-4.710;2023-07-20T03:37:42;100078.08;;;28.49;26.77
80500;BME280;69823;54.120;-4.710;2023-07-20T03:40:09;100079.19;;;28.41;26.85
80500;BME280;69823;54.120;-4.710;2023-07-20T03:42:34;100077.11;;;28.42;26.82
80500;BME280;69823;54.120;-4.710;2023-07-20T03:44:59;100077.29;;;28.32;26.68
80500;BME280;69823;54.120;-4.710;2023-07-20T03:47:25;100079.45;;;28.42;26.82
80500;BME280;69823;54.120;-4.710;2023-07-20T03:49:50;100080.58;;;28.32;26.92
80500;BME280;69823;54.120;-4.710;2023-07-20T03:52:16;100078.95;;;28.39;26.85
80500;BME280;69823;54.120;-4.710;2023-07-20T03:54:42;100078.17;;;28.49;26.99
80500;BME280;69823;54.120;-4.710;2023-07-20T03:57:08;100078.27;;;28.35;26.88
80500;BME280;69823;54.120;-4.710;2023-07-20T03:59:33;100080.08;;;28.06;26.95
80500;BME280;69823;54.120;-4.710;2023-07-20T04:01:59;100079.37;;;28.52;26.96
80500;BME280;69823;54.120;-4.710;2023-07-20T04:04:25;100080.09;;;28.23;27.01
80500;BME280;69823;54.120;-4.710;2023-07-20T04:06:50;100077.62;;;28.01;26.98
80500;BME280;69823;54.120;-4.710;2023-07-20T04:09:16;100078.02;;;28.36;26.89
80500;BME280;69823;54.120;-4.710;2023-07-20T04:11:42;100079.94;;;28.57;26.91
80500;BME280;69823;54.120;-4.710;2023-07-20T04:14:07;100079.36;;;28.40;26.83
80500;BME280;69823;54.120;-4.710;2023-07-20T04:16:33;100079.49;;;28.17;26.80
80500;BME280;69823;54.120;-4.710;2023-07-20T04:18:59;100081.38;;;28.11;26.86
80500;BME280;69823;54.120;-4.710;2023-07-20T04:21:27;100082.23;;;28.35;26.84
80500;BME280;69823;54.120;-4.710;2023-07-20T04:23:50;100083.47;;;28.13;26.82
80500;BME280;69823;54.120;-4.710;2023-07-20T04:26:16;100083.47;;;28.29;26.90
80500;BME280;69823;54.120;-4.710;2023-07-20T04:28:41;100081.52;;;28.26;26.92
80500;BME280;69823;54.120;-4.710;2023-07-20T04:31:11;100079.38;;;28.37;26.79
80500;BME280;69823;54.120;-4.710;2023-07-20T04:33:33;100076.57;;;28.43;26.74
80500;BME280;69823;54.120;-4.710;2023-07-20T04:35:58;100077.76;;;28.34;26.82
80500;BME280;69823;54.120;-4.710;2023-07-20T04:38:24;100076.13;;;28.52;26.88
80500;BME280;69823;54.120;-4.710;2023-07-20T04:40:50;100074.27;;;28.35;26.81
80500;BME280;69823;54.120;-4.710;2023-07-20T04:43:16;100073.50;;;28.35;26.81
80500;BME280;69823;54.120;-4.710;2023-07-20T04:45:41;100076.63;;;28.34;26.80
80500;BME280;69823;54.120;-4.710;2023-07-20T04:48:10;100076.46;;;28.05;26.85
80500;BME280;69823;54.120;-4.710;2023-07-20T04:50:33;100077.18;;;28.32;26.83
80500;BME280;69823;54.120;-4.710;2023-07-20T04:52:58;100079.87;;;28.36;26.79
80500;BME280;69823;54.120;-4.710;2023-07-20T04:55:24;100076.75;;;28.34;26.79
80500;BME280;69823;54.120;-4.710;2023-07-20T04:57:50;100072.09;;;28.34;26.79
80500;BME280;69823;54.120;-4.710;2023-07-20T05:00:16;100072.86;;;28.12;26.75
80500;BME280;69823;54.120;-4.710;2023-07-20T05:02:41;100069.85;;;28.32;26.78
80500;BME280;69823;54.120;-4.710;2023-07-20T05:05:07;100067.99;;;28.30;26.79
80500;BME280;69823;54.120;-4.710;2023-07-20T05:07:32;100069.62;;;28.23;26.86
80500;BME280;69823;54.120;-4.710;2023-07-20T05:09:58;100070.06;;;28.27;26.83
80500;BME280;69823;54.120;-4.710;2023-07-20T05:12:24;100072.76;;;28.34;26.75
80500;BME280;69823;54.120;-4.710;2023-07-20T05:14:49;100071.56;;;28.36;26.75
80500;BME280;69823;54.120;-4.710;2023-07-20T05:17:15;100070.51;;;28.33;26.75
80500;BME280;69823;54.120;-4.710;2023-07-20T05:19:41;100071.21;;;28.49;26.83
80500;BME280;69823;54.120;-4.710;2023-07-20T05:22:07;100070.49;;;28.21;26.87
80500;BME280;69823;54.120;-4.710;2023-07-20T05:24:32;100070.09;;;28.28;26.80
80500;BME280;69823;54.120;-4.710;2023-07-20T05:26:58;100067.64;;;28.46;26.84
80500;BME280;69823;54.120;-4.710;2023-07-20T05:29:24;100066.19;;;28.22;26.86
80500;BME280;69823;54.120;-4.710;2023-07-20T05:31:49;100063.61;;;28.13;26.95
80500;BME280;69823;54.120;-4.710;2023-07-20T05:34:15;100061.13;;;28.07;27.00
80500;BME280;69823;54.120;-4.710;2023-07-20T05:36:41;100061.97;;;28.17;26.93
80500;BME280;69823;54.120;-4.710;2023-07-20T05:39:06;100061.58;;;28.25;26.85
80500;BME280;69823;54.120;-4.710;2023-07-20T05:41:32;100062.67;;;28.22;26.88
80500;BME280;69823;54.120;-4.710;2023-07-20T05:43:58;100059.18;;;28.25;26.85
80500;BME280;69823;54.120;-4.710;2023-07-20T05:46:23;100058.44;;;28.47;26.88
80500;BME280;69823;54.120;-4.710;2023-07-20T05:48:49;100059.92;;;28.21;26.88
80500;BME280;69823;54.120;-4.710;2023-07-20T05:51:15;100059.59;;;27.99;26.86
80500;BME280;69823;54.120;-4.710;2023-07-20T05:53:41;100057.69;;;28.15;26.96
80500;BME280;69823;54.120;-4.710;2023-07-20T05:56:06;100057.20;;;28.14;26.95
80500;BME280;69823;54.120;-4.710;2023-07-20T05:58:32;100058.28;;;28.33;27.00
80500;BME280;69823;54.120;-4.710;2023-07-20T06:00:57;100059.94;;;28.18;26.92
80500;BME280;69823;54.120;-4.710;2023-07-20T06:03:23;100061.76;;;28.16;26.94
80500;BME280;69823;54.120;-4.710;2023-07-20T06:05:49;100062.15;;;28.25;26.85
80500;BME280;69823;54.120;-4.710;2023-07-20T06:08:15;100063.68;;;28.25;26.85
80500;BME280;69823;54.120;-4.710;2023-07-20T06:10:40;100060.62;;;28.16;26.95
80500;BME280;69823;54.120;-4.710;2023-07-20T06:13:06;100062.80;;;28.22;26.88
80500;BME280;69823;54.120;-4.710;2023-07-20T06:15:32;100062.90;;;28.23;26.88
80500;BME280;69823;54.120;-4.710;2023-07-20T06:17:57;100065.20;;;28.68;26.90
80500;BME280;69823;54.120;-4.710;2023-07-20T06:20:23;100061.05;;;28.12;26.97
80500;BME280;69823;54.120;-4.710;2023-07-20T06:22:48;100062.45;;;28.14;26.97
80500;BME280;69823;54.120;-4.710;2023-07-20T06:25:14;100063.90;;;28.17;26.94
80500;BME280;69823;54.120;-4.710;2023-07-20T06:27:40;100063.78;;;28.35;27.00
80500;BME280;69823;54.120;-4.710;2023-07-20T06:30:07;100064.72;;;28.17;26.96
80500;BME280;69823;54.120;-4.710;2023-07-20T06:32:31;100069.08;;;28.09;27.03
80500;BME280;69823;54.120;-4.710;2023-07-20T06:34:57;100072.35;;;28.09;27.03
80500;BME280;69823;54.120;-4.710;2023-07-20T06:37:23;100075.07;;;28.15;26.98
80500;BME280;69823;54.120;-4.710;2023-07-20T06:39:48;100074.30;;;28.14;26.99
80500;BME280;69823;54.120;-4.710;2023-07-20T06:42:14;100078.39;;;28.22;26.94
80500;BME280;69823;54.120;-4.710;2023-07-20T06:44:40;100074.98;;;28.21;26.97
80500;BME280;69823;54.120;-4.710;2023-07-20T06:47:05;100075.98;;;28.21;26.95
80500;BME280;69823;54.120;-4.710;2023-07-20T06:49:31;100079.70;;;28.14;27.00
80500;BME280;69823;54.120;-4.710;2023-07-20T06:51:57;100080.97;;;28.14;26.99
80500;BME280;69823;54.120;-4.710;2023-07-20T06:54:22;100080.25;;;28.09;27.04
80500;BME280;69823;54.120;-4.710;2023-07-20T06:56:48;100080.39;;;28.20;26.94
80500;BME280;69823;54.120;-4.710;2023-07-20T06:59:13;100081.85;;;28.24;26.89
80500;BME280;69823;54.120;-4.710;2023-07-20T07:01:39;100081.58;;;28.30;26.81
80500;BME280;69823;54.120;-4.710;2023-07-20T07:04:05;100079.06;;;27.93;26.94
80500;BME280;69823;54.120;-4.710;2023-07-20T07:06:31;100078.61;;;28.14;26.96
80500;BME280;69823;54.120;-4.710;2023-07-20T07:08:56;100079.45;;;28.23;26.87
80500;BME280;69823;54.120;-4.710;2023-07-20T07:11:22;100083.81;;;28.17;26.92
80500;BME280;69823;54.120;-4.710;2023-07-20T07:13:48;100080.84;;;28.10;27.01
80500;BME280;69823;54.120;-4.710;2023-07-20T07:16:13;100080.63;;;28.25;26.83
80500;BME280;69823;54.120;-4.710;2023-07-20T07:18:39;100079.69;;;28.13;26.95
80500;BME280;69823;54.120;-4.710;2023-07-20T07:21:05;100079.36;;;28.12;26.98
80500;BME280;69823;54.120;-4.710;2023-07-20T07:23:30;100079.59;;;28.03;27.04
80500;BME280;69823;54.120;-4.710;2023-07-20T07:25:56;100076.16;;;28.08;26.99
80500;BME280;69823;54.120;-4.710;2023-07-20T07:28:22;100078.22;;;28.17;26.89
80500;BME280;69823;54.120;-4.710;2023-07-20T07:30:48;100080.87;;;28.15;26.92
80500;BME280;69823;54.120;-4.710;2023-07-20T07:33:13;100085.58;;;28.23;26.83
80500;BME280;69823;54.120;-4.710;2023-07-20T07:35:39;100083.65;;;27.90;26.91
80500;BME280;69823;54.120;-4.710;2023-07-20T07:38:04;100084.49;;;28.21;26.84
80500;BME280;69823;54.120;-4.710;2023-07-20T07:40:30;100090.03;;;28.19;26.86
80500;BME280;69823;54.120;-4.710;2023-07-20T07:42:56;100093.01;;;28.43;26.83
80500;BME280;69823;54.120;-4.710;2023-07-20T07:45:21;100094.70;;;28.45;26.83
80500;BME280;69823;54.120;-4.710;2023-07-20T07:47:47;100094.99;;;28.18;26.85
80500;BME280;69823;54.120;-4.710;2023-07-20T07:50:13;100096.00;;;28.14;26.93
80500;BME280;69823;54.120;-4.710;2023-07-20T07:52:38;100095.47;;;28.32;26.75
80500;BME280;69823;54.120;-4.710;2023-07-20T07:55:05;100096.98;;;28.15;26.91
80500;BME280;69823;54.120;-4.710;2023-07-20T07:57:30;100095.65;;;28.14;26.92
80500;BME280;69823;54.120;-4.710;2023-07-20T07:59:56;100093.48;;;27.59;26.93
80500;BME280;69823;54.120;-4.710;2023-07-20T08:02:21;100092.45;;;28.14;26.91
80500;BME280;69823;54.120;-4.710;2023-07-20T08:04:47;100096.46;;;28.30;26.75
80500;BME280;69823;54.120;-4.710;2023-07-20T08:07:13;100097.65;;;28.22;26.82
80500;BME280;69823;54.120;-4.710;2023-07-20T08:09:38;100094.65;;;28.14;26.89
80500;BME280;69823;54.120;-4.710;2023-07-20T08:12:05;100096.61;;;28.51;26.53
80500;BME280;69823;54.120;-4.710;2023-07-20T08:14:30;100095.25;;;28.39;26.63
80500;BME280;69823;54.120;-4.710;2023-07-20T08:16:55;100099.32;;;28.27;26.73
80500;BME280;69823;54.120;-4.710;2023-07-20T08:19:21;100096.98;;;28.31;26.69
80500;BME280;69823;54.120;-4.710;2023-07-20T08:21:47;100096.32;;;28.05;26.70
80500;BME280;69823;54.120;-4.710;2023-07-20T08:24:12;100096.48;;;28.04;26.72
80500;BME280;69823;54.120;-4.710;2023-07-20T08:26:38;100100.55;;;28.21;26.80
80500;BME280;69823;54.120;-4.710;2023-07-20T08:29:03;100102.10;;;28.19;26.83
80500;BME280;69823;54.120;-4.710;2023-07-20T08:31:29;100101.78;;;28.43;26.85
80500;BME280;69823;54.120;-4.710;2023-07-20T08:33:55;100102.66;;;28.20;26.87
80500;BME280;69823;54.120;-4.710;2023-07-20T08:36:20;100102.85;;;28.21;26.87
80500;BME280;69823;54.120;-4.710;2023-07-20T08:38:46;100096.78;;;27.78;26.84
80500;BME280;69823;54.120;-4.710;2023-07-20T08:41:12;100096.18;;;28.23;26.86
80500;BME280;69823;54.120;-4.710;2023-07-20T08:43:41;100098.81;;;28.29;26.83
80500;BME280;69823;54.120;-4.710;2023-07-20T08:46:04;100103.41;;;28.06;26.78
80500;BME280;69823;54.120;-4.710;2023-07-20T08:48:30;100103.04;;;28.37;26.70
80500;BME280;69823;54.120;-4.710;2023-07-20T08:50:55;100103.35;;;27.89;26.75
80500;BME280;69823;54.120;-4.710;2023-07-20T08:53:21;100102.90;;;28.14;26.96
80500;BME280;69823;54.120;-4.710;2023-07-20T08:55:50;100102.38;;;28.04;27.05
80500;BME280;69823;54.120;-4.710;2023-07-20T08:58:12;100102.69;;;27.93;27.16
80500;BME280;69823;54.120;-4.710;2023-07-20T09:00:38;100099.15;;;27.70;27.17
80500;BME280;69823;54.120;-4.710;2023-07-20T09:03:04;100104.94;;;28.13;26.99
80500;BME280;69823;54.120;-4.710;2023-07-20T09:05:29;100100.01;;;28.02;27.10
80500;BME280;69823;54.120;-4.710;2023-07-20T09:07:55;100100.86;;;27.92;27.23
80500;BME280;69823;54.120;-4.710;2023-07-20T09:10:21;100098.48;;;27.94;27.18
80500;BME280;69823;54.120;-4.710;2023-07-20T09:12:46;100095.25;;;27.90;26.96
80500;BME280;69823;54.120;-4.710;2023-07-20T09:15:12;100094.26;;;28.10;26.96
80500;BME280;69823;54.120;-4.710;2023-07-20T09:17:38;100095.16;;;28.40;27.12
80500;BME280;69823;54.120;-4.710;2023-07-20T09:20:04;100093.01;;;27.96;26.95
80500;BME280;69823;54.120;-4.710;2023-07-20T09:22:30;100088.85;;;27.84;27.03
80500;BME280;69823;54.120;-4.710;2023-07-20T09:24:54;100088.48;;;27.80;27.32
80500;BME280;69823;54.120;-4.710;2023-07-20T09:27:20;100087.65;;;27.86;27.31
80500;BME280;69823;54.120;-4.710;2023-07-20T09:29:48;100086.72;;;27.99;27.18
80500;BME280;69823;54.120;-4.710;2023-07-20T09:32:11;100089.14;;;28.10;27.10
80500;BME280;69823;54.120;-4.710;2023-07-20T09:34:37;100092.64;;;28.18;27.04
80500;BME280;69823;54.120;-4.710;2023-07-20T09:37:02;100091.97;;;27.92;27.07
80500;BME280;69823;54.120;-4.710;2023-07-20T09:39:29;100092.96;;;28.13;27.10
80500;BME280;69823;54.120;-4.710;2023-07-20T09:41:53;100092.17;;;28.33;26.92
80500;BME280;69823;54.120;-4.710;2023-07-20T09:44:19;100093.71;;;28.20;27.03
80500;BME280;69823;54.120;-4.710;2023-07-20T09:46:45;100092.95;;;28.39;26.90
80500;BME280;69823;54.120;-4.710;2023-07-20T09:49:10;100093.60;;;28.50;26.81
80500;BME280;69823;54.120;-4.710;2023-07-20T09:51:36;100093.61;;;28.65;26.70
80500;BME280;69823;54.120;-4.710;2023-07-20T09:54:02;100094.96;;;28.57;26.34
80500;BME280;69823;54.120;-4.710;2023-07-20T09:56:28;100092.60;;;28.74;26.19
80500;BME280;69823;54.120;-4.710;2023-07-20T09:58:53;100093.52;;;28.92;25.99
80500;BME280;69823;54.120;-4.710;2023-07-20T10:01:20;100091.75;;;29.03;25.89
80500;BME280;69823;54.120;-4.710;2023-07-20T10:03:45;100091.06;;;29.22;25.66
80500;BME280;69823;54.120;-4.710;2023-07-20T10:06:14;100091.39;;;29.22;25.65
80500;BME280;69823;54.120;-4.710;2023-07-20T10:08:39;100093.60;;;29.63;25.49
80500;BME280;69823;54.120;-4.710;2023-07-20T10:11:02;100089.44;;;29.30;25.56
80500;BME280;69823;54.120;-4.710;2023-07-20T10:13:29;100090.22;;;29.29;25.56
80500;BME280;69823;54.120;-4.710;2023-07-20T10:15:55;100090.27;;;29.08;25.72
80500;BME280;69823;54.120;-4.710;2023-07-20T10:18:25;100089.49;;;29.22;25.64
80500;BME280;69823;54.120;-4.710;2023-07-20T10:20:44;100090.21;;;29.51;25.36
80500;BME280;69823;54.120;-4.710;2023-07-20T10:23:10;100087.85;;;29.45;25.35
80500;BME280;69823;54.120;-4.710;2023-07-20T10:25:36;100090.22;;;29.57;25.27
80500;BME280;69823;54.120;-4.710;2023-07-20T10:28:01;100091.56;;;29.64;25.43
80500;BME280;69823;54.120;-4.710;2023-07-20T10:30:27;100090.98;;;29.56;25.51
80500;BME280;69823;54.120;-4.710;2023-07-20T10:32:53;100089.77;;;29.48;25.37
80500;BME280;69823;54.120;-4.710;2023-07-20T10:35:18;100089.71;;;29.84;25.04
80500;BME280;69823;54.120;-4.710;2023-07-20T10:37:47;100091.83;;;29.54;25.13
80500;BME280;69823;54.120;-4.710;2023-07-20T10:40:25;100086.77;;;30.13;24.76
80500;BME280;69823;54.120;-4.710;2023-07-20T10:42:35;100087.97;;;29.94;24.95
80500;BME280;69823;54.120;-4.710;2023-07-20T10:45:01;100084.71;;;29.98;24.90
80500;BME280;69823;54.120;-4.710;2023-07-20T10:47:26;100085.88;;;30.02;24.90
80500;BME280;69823;54.120;-4.710;2023-07-20T10:49:58;100080.87;;;30.29;24.82
80500;BME280;69823;54.120;-4.710;2023-07-20T10:52:18;100078.79;;;30.00;24.92
80500;BME280;69823;54.120;-4.710;2023-07-20T10:54:47;100078.37;;;30.09;24.83
80500;BME280;69823;54.120;-4.710;2023-07-20T10:57:23;100079.34;;;29.94;24.98
80500;BME280;69823;54.120;-4.710;2023-07-20T10:59:37;100076.75;;;29.86;25.05
80500;BME280;69823;54.120;-4.710;2023-07-20T11:02:05;100072.17;;;30.14;24.76
80500;BME280;69823;54.120;-4.710;2023-07-20T11:06:55;100078.76;;;29.68;25.25
80500;BME280;69823;54.120;-4.710;2023-07-20T11:09:22;100076.83;;;29.65;25.29
80500;BME280;69823;54.120;-4.710;2023-07-20T11:11:44;100077.69;;;30.00;25.20
80500;BME280;69823;54.120;-4.710;2023-07-20T11:14:10;100074.19;;;29.73;25.20
80500;BME280;69823;54.120;-4.710;2023-07-20T11:16:36;100075.85;;;29.70;25.19
80500;BME280;69823;54.120;-4.710;2023-07-20T11:19:00;100079.31;;;29.80;25.13
80500;BME280;69823;54.120;-4.710;2023-07-20T11:21:26;100076.95;;;29.87;25.06
80500;BME280;69823;54.120;-4.710;2023-07-20T11:23:52;100076.40;;;29.87;25.03
80500;BME280;69823;54.120;-4.710;2023-07-20T11:26:17;100077.27;;;29.99;24.93
80500;BME280;69823;54.120;-4.710;2023-07-20T11:28:42;100075.88;;;30.06;24.86
80500;BME280;69823;54.120;-4.710;2023-07-20T11:31:08;100074.21;;;30.24;24.69
80500;BME280;69823;54.120;-4.710;2023-07-20T11:33:34;100070.72;;;30.03;24.66
80500;BME280;69823;54.120;-4.710;2023-07-20T11:35:59;100066.94;;;30.19;24.72
80500;BME280;69823;54.120;-4.710;2023-07-20T11:38:25;100066.37;;;30.31;24.57
80500;BME280;69823;54.120;-4.710;2023-07-20T11:40:51;100061.36;;;30.19;24.67
80500;BME280;69823;54.120;-4.710;2023-07-20T11:43:16;100060.16;;;29.90;24.69
80500;BME280;69823;54.120;-4.710;2023-07-20T11:45:42;100057.47;;;30.02;24.82
80500;BME280;69823;54.120;-4.710;2023-07-20T11:48:14;100056.68;;;30.14;24.72
80500;BME280;69823;54.120;-4.710;2023-07-20T11:50:38;100057.32;;;29.87;24.73
80500;BME280;69823;54.120;-4.710;2023-07-20T11:52:59;100060.45;;;30.22;24.58
80500;BME280;69823;54.120;-4.710;2023-07-20T11:55:25;100060.27;;;29.86;24.70
80500;BME280;69823;54.120;-4.710;2023-07-20T11:58:01;100055.14;;;30.01;24.83
80500;BME280;69823;54.120;-4.710;2023-07-20T12:00:17;100055.74;;;30.05;24.79
80500;BME280;69823;54.120;-4.710;2023-07-20T12:02:42;100055.59;;;29.95;24.90
80500;BME280;69823;54.120;-4.710;2023-07-20T12:05:08;100053.41;;;29.85;24.98
80500;BME280;69823;54.120;-4.710;2023-07-20T12:07:35;100053.23;;;29.71;25.13
80500;BME280;69823;54.120;-4.710;2023-07-20T12:10:04;100050.58;;;29.41;25.21
80500;BME280;69823;54.120;-4.710;2023-07-20T12:12:25;100052.79;;;29.51;25.35
80500;BME280;69823;54.120;-4.710;2023-07-20T12:14:49;100050.21;;;29.58;25.31
80500;BME280;69823;54.120;-4.710;2023-07-20T12:17:16;100052.34;;;29.54;25.38
80500;BME280;69823;54.120;-4.710;2023-07-20T12:19:41;100054.37;;;29.56;25.37
80500;BME280;69823;54.120;-4.710;2023-07-20T12:22:06;100056.17;;;29.60;25.35
80500;BME280;69823;54.120;-4.710;2023-07-20T12:24:32;100050.83;;;29.54;25.42
80500;BME280;69823;54.120;-4.710;2023-07-20T12:26:58;100048.90;;;29.31;25.61
80500;BME280;69823;54.120;-4.710;2023-07-20T12:29:23;100051.15;;;29.16;25.74
80500;BME280;69823;54.120;-4.710;2023-07-20T12:31:49;100053.06;;;29.07;25.86
80500;BME280;69823;54.120;-4.710;2023-07-20T12:34:15;100049.88;;;28.95;25.98